Time;durP1;ratioP1;P1;durP2;ratioP2;P2;SDS_P1;SDS_P2;PMS_P1;PMS_P2;Temp;Humidity;BMP_temperature;BMP_pressure;BME280_temperature;BME280_humidity;BME280_pressure;Samples;Min_cycle;Max_cycle;Signal;HPM_P1;HPM_P2
2023/03/04 00:00:54;;;;;;;;;42.25;33.00;;;;;5.43;59.60;101863.22;5033874;28;46155;-78
2023/03/04 00:03:21;;;;;;;;;48.00;38.00;;;;;5.48;59.88;101876.91;5032844;28;45719;-79
2023/03/04 00:05:47;;;;;;;;;42.25;38.50;;;;;5.48;59.86;101878.66;5033633;28;45778;-81
2023/03/04 00:08:45;;;;;;;;;39.50;37.00;;;;;5.29;59.69;101847.16;5034353;28;45769;-79
2023/03/04 00:11:20;;;;;;;;;41.25;37.50;;;;;4.82;59.78;101770.63;4920069;28;46696;-78
2023/03/04 00:13:58;;;;;;;;;37.00;33.75;;;;;5.05;60.21;101808.91;4933781;28;45603;-79
2023/03/04 00:16:29;;;;;;;;;43.75;37.00;;;;;5.01;60.07;101809.91;4935286;28;45730;-79
2023/03/04 00:19:00;;;;;;;;;45.75;34.50;;;;;5.08;59.96;101820.06;4934983;28;46601;-77
2023/03/04 00:21:26;;;;;;;;;42.50;36.25;;;;;4.69;59.85;101777.06;4934540;28;45822;-77
2023/03/04 00:23:51;;;;;;;;;44.50;39.00;;;;;5.28;59.82;101861.06;4934532;28;45793;-80
2023/03/04 00:26:17;;;;;;;;;44.25;37.00;;;;;5.33;59.84;101866.13;4935143;28;45720;-78
2023/03/04 00:29:25;;;;;;;;;41.00;35.00;;;;;5.00;59.83;101813.41;4935206;28;48542;-80
2023/03/04 00:31:53;;;;;;;;;49.25;35.75;;;;;5.03;60.17;101827.13;4862483;29;46960;-78
2023/03/04 00:34:24;;;;;;;;;43.25;38.00;;;;;5.40;60.06;101897.06;4862223;29;45858;-78
2023/03/04 00:36:49;;;;;;;;;48.00;37.25;;;;;5.15;60.36;101845.84;4877689;29;45764;-79
2023/03/04 00:39:34;;;;;;;;;53.00;41.50;;;;;5.24;60.37;101861.16;4878263;29;45843;-78
2023/03/04 00:41:59;;;;;;;;;44.00;38.00;;;;;5.38;60.48;101905.81;4861571;29;46947;-79
2023/03/04 00:44:50;;;;;;;;;50.25;42.50;;;;;5.25;60.67;101879.31;4878156;29;45586;-78
2023/03/04 00:47:19;;;;;;;;;45.50;35.75;;;;;4.73;60.40;101791.66;4894069;28;45725;-78
2023/03/04 00:50:01;;;;;;;;;46.00;38.50;;;;;5.34;60.39;101893.81;4974924;28;45682;-79
2023/03/04 00:52:29;;;;;;;;;49.50;40.50;;;;;5.32;60.51;101893.84;4950937;28;46176;-78
2023/03/04 00:55:06;;;;;;;;;53.50;38.25;;;;;4.39;60.73;101760.59;4955784;28;45965;-78
2023/03/04 00:57:32;;;;;;;;;49.50;42.25;;;;;5.04;60.69;101852.22;4956559;28;45580;-78
2023/03/04 00:59:57;;;;;;;;;47.00;37.25;;;;;4.87;60.54;101833.66;4955259;28;45651;-79
2023/03/04 01:02:22;;;;;;;;;51.00;41.50;;;;;5.26;60.94;101898.38;4955138;28;45632;-80
2023/03/04 01:04:48;;;;;;;;;51.25;40.50;;;;;4.95;60.57;101860.28;4939471;28;45563;-78
2023/03/04 01:07:13;;;;;;;;;48.25;37.50;;;;;5.17;61.29;101888.25;4982176;28;46090;-79
2023/03/04 01:09:38;;;;;;;;;57.00;43.75;;;;;5.22;60.74;101905.41;5015593;28;45522;-79
2023/03/04 01:12:04;;;;;;;;;46.25;39.25;;;;;5.09;60.72;101891.03;5016073;28;45750;-78
2023/03/04 01:14:30;;;;;;;;;50.75;39.50;;;;;5.21;60.71;101902.84;5015496;28;45642;-78
2023/03/04 01:16:55;;;;;;;;;47.75;38.25;;;;;4.93;60.90;101864.66;5015204;28;45806;-80
2023/03/04 01:19:21;;;;;;;;;56.25;44.50;;;;;4.95;61.09;101867.22;5013287;28;46599;-78
2023/03/04 01:21:48;;;;;;;;;58.00;44.00;;;;;4.79;61.08;101837.38;5013557;28;45791;-79
2023/03/04 01:24:14;;;;;;;;;45.25;40.50;;;;;4.93;61.11;101869.84;5013810;28;45920;-78
2023/03/04 01:26:39;;;;;;;;;58.50;45.25;;;;;4.72;61.17;101828.88;4997148;28;45929;-79
2023/03/04 01:32:26;;;;;;;;;49.50;44.50;;;;;5.03;60.91;101878.22;5013157;28;46095;-80
2023/03/04 01:34:51;;;;;;;;;54.75;40.00;;;;;4.90;61.11;101867.34;5013858;28;45698;-78
2023/03/04 01:37:17;;;;;;;;;51.50;40.25;;;;;4.94;61.59;101870.69;5014336;28;45730;-78
2023/03/04 01:39:42;;;;;;;;;54.75;44.25;;;;;4.98;61.07;101893.06;5013400;28;45649;-80
2023/03/04 01:42:17;;;;;;;;;55.00;44.75;;;;;4.60;61.44;101827.47;5013114;28;46688;-79
2023/03/04 01:44:43;;;;;;;;;48.25;41.50;;;;;5.00;61.28;101881.78;4995660;28;45852;-79
2023/03/04 01:47:09;;;;;;;;;61.75;49.75;;;;;4.91;61.87;101869.03;5013312;28;45706;-79
2023/03/04 01:49:35;;;;;;;;;51.50;35.75;;;;;4.74;61.52;101847.03;5018618;28;46661;-81
2023/03/04 01:52:00;;;;;;;;;53.25;45.00;;;;;4.99;61.48;101879.22;5054441;28;45591;-78
2023/03/04 01:54:25;;;;;;;;;60.25;47.00;;;;;4.98;61.38;101873.16;5055131;28;45614;-80
2023/03/04 01:56:51;;;;;;;;;52.50;46.25;;;;;4.90;61.42;101861.28;5070418;28;45548;-79
2023/03/04 02:02:38;;;;;;;;;56.00;43.25;;;;;4.94;61.35;101871.56;5054585;28;46093;-78
2023/03/04 02:05:04;;;;;;;;;52.00;44.50;;;;;4.96;61.91;101863.72;5056871;28;45816;-80
2023/03/04 02:07:29;;;;;;;;;51.75;43.50;;;;;4.87;61.73;101854.41;5073793;28;45726;-79
2023/03/04 02:09:55;;;;;;;;;59.00;48.00;;;;;4.93;61.52;101863.78;5058208;28;45570;-78
2023/03/04 02:12:20;;;;;;;;;50.75;38.75;;;;;4.81;61.89;101845.94;5058558;28;46120;-80
2023/03/04 02:18:36;;;;;;;;;59.25;47.25;;;;;4.87;61.69;101867.41;5058310;28;45589;-78
2023/03/04 02:21:27;;;;;;;;;59.25;45.75;;;;;4.67;61.86;101843.75;4976111;28;45670;-80
2023/03/04 02:23:56;;;;;;;;;59.25;44.50;;;;;4.84;61.67;101879.63;4976818;28;46005;-77
2023/03/04 02:26:23;;;;;;;;;60.50;47.00;;;;;4.83;61.97;101871.00;4978114;28;45769;-78
2023/03/04 02:28:59;;;;;;;;;46.25;40.75;;;;;4.69;62.18;101857.53;4979745;28;45769;-78
2023/03/04 02:31:34;;;;;;;;;63.00;44.50;;;;;4.47;61.97;101817.47;4964503;28;46963;-78
2023/03/04 02:34:10;;;;;;;;;50.25;35.25;;;;;4.80;62.22;101871.09;4980881;28;46352;-78
2023/03/04 02:36:42;;;;;;;;;46.25;40.25;;;;;4.48;62.06;101821.78;4980763;28;45978;-78
2023/03/04 02:39:31;;;;;;;;;55.75;44.75;;;;;4.80;61.94;101867.63;4980166;28;45675;-80
2023/03/04 02:42:23;;;;;;;;;50.25;43.75;;;;;4.35;61.63;101791.84;4962385;28;45920;-80
2023/03/04 02:44:49;;;;;;;;;65.50;47.00;;;;;4.53;62.71;101833.75;4977171;28;47278;-78
2023/03/04 02:47:17;;;;;;;;;51.25;43.75;;;;;4.76;62.09;101868.59;4976900;28;45565;-78
2023/03/04 02:49:43;;;;;;;;;53.50;42.75;;;;;4.62;62.65;101840.41;4977386;28;45636;-79
2023/03/04 02:52:18;;;;;;;;;47.25;36.50;;;;;4.37;62.52;101790.06;4979713;28;46593;-79
2023/03/04 02:54:43;;;;;;;;;51.50;38.50;;;;;4.48;62.43;101817.41;4996742;28;46545;-79
2023/03/04 02:57:11;;;;;;;;;57.75;45.75;;;;;4.63;62.57;101842.13;5027612;28;45676;-80
2023/03/04 02:59:38;;;;;;;;;50.75;42.75;;;;;4.75;62.26;101854.75;5079823;28;45649;-79
2023/03/04 03:02:04;;;;;;;;;43.00;37.25;;;;;4.71;62.46;101850.53;5081726;28;45560;-80
2023/03/04 03:04:37;;;;;;;;;48.00;40.75;;;;;4.57;62.10;101821.53;5045513;28;46330;-78
2023/03/04 03:07:02;;;;;;;;;47.50;41.00;;;;;4.72;62.28;101841.88;5081112;28;45713;-82
2023/03/04 03:09:28;;;;;;;;;56.25;41.25;;;;;4.72;62.70;101852.25;5080213;28;45719;-78
2023/03/04 03:11:53;;;;;;;;;48.75;38.50;;;;;4.33;62.35;101785.84;5077542;28;45636;-79
2023/03/04 03:14:19;;;;;;;;;58.00;43.25;;;;;4.69;62.58;101849.75;5077410;28;45691;-78
2023/03/04 03:16:44;;;;;;;;;56.25;40.75;;;;;4.69;62.49;101841.97;5077380;28;45587;-78
2023/03/04 03:19:09;;;;;;;;;54.25;41.25;;;;;4.67;62.73;101846.34;5077675;28;45529;-79
2023/03/04 03:21:42;;;;;;;;;53.25;42.00;;;;;4.65;62.25;101838.56;5077147;28;46869;-79
2023/03/04 03:24:08;;;;;;;;;46.00;41.75;;;;;4.57;62.29;101824.97;5077960;28;46132;-78
2023/03/04 03:26:33;;;;;;;;;50.50;41.75;;;;;4.46;62.45;101806.25;5078983;28;45574;-80
2023/03/04 03:28:58;;;;;;;;;59.50;43.25;;;;;4.55;62.40;101825.91;5077980;28;45721;-78
2023/03/04 03:31:24;;;;;;;;;55.50;42.75;;;;;4.44;62.73;101810.59;5077568;28;46594;-79
2023/03/04 03:33:49;;;;;;;;;64.25;46.00;;;;;4.28;62.43;101787.69;5077486;28;45640;-79
2023/03/04 03:36:15;;;;;;;;;44.75;38.50;;;;;4.58;62.65;101838.81;5059222;28;45557;-78
2023/03/04 03:38:40;;;;;;;;;52.50;44.00;;;;;4.33;62.72;101797.06;5077415;28;45616;-78
2023/03/04 03:41:05;;;;;;;;;54.75;39.50;;;;;4.16;62.74;101771.56;5058651;28;47361;-80
2023/03/04 03:43:31;;;;;;;;;56.25;43.75;;;;;4.56;62.68;101835.38;5076815;28;46698;-80
2023/03/04 03:49:18;;;;;;;;;50.25;42.50;;;;;4.54;62.80;101845.78;5077316;28;45599;-78
2023/03/04 03:51:43;;;;;;;;;46.50;40.25;;;;;4.53;62.78;101845.84;5077231;28;46076;-79
2023/03/04 03:54:09;;;;;;;;;58.75;43.00;;;;;4.49;62.45;101849.41;5076494;28;45993;-79
2023/03/04 03:56:34;;;;;;;;;46.50;37.75;;;;;4.25;62.35;101819.78;5077048;28;45623;-78
2023/03/04 03:59:00;;;;;;;;;52.00;41.50;;;;;4.03;62.49;101783.16;5077210;28;45458;-80
2023/03/04 04:01:25;;;;;;;;;51.75;41.50;;;;;4.10;62.51;101797.66;5058321;28;47635;-79
2023/03/04 04:03:51;;;;;;;;;51.25;42.00;;;;;4.21;62.88;101805.19;5076753;28;46176;-78
2023/03/04 04:06:16;;;;;;;;;34.50;30.25;;;;;4.00;62.84;101784.97;5077281;28;45667;-80
2023/03/04 04:08:41;;;;;;;;;50.00;42.25;;;;;4.42;62.21;101859.13;5077413;28;45502;-78
2023/03/04 04:11:11;;;;;;;;;50.00;42.50;;;;;4.41;62.67;101854.81;5077033;28;46248;-80
2023/03/04 04:13:37;;;;;;;;;43.25;36.50;;;;;4.29;62.64;101839.53;5076314;28;46043;-77
2023/03/04 04:19:24;;;;;;;;;46.00;37.50;;;;;4.37;62.61;101858.38;5077046;28;45520;-79
2023/03/04 04:21:50;;;;;;;;;43.25;34.75;;;;;4.19;62.81;101823.38;5076942;28;46337;-78
2023/03/04 04:24:15;;;;;;;;;11.00;7.00;;;;;4.39;62.85;101855.72;5076510;28;46122;-79
2023/03/04 04:26:41;;;;;;;;;50.50;40.25;;;;;4.39;62.80;101860.91;5076446;28;45729;-79
2023/03/04 04:29:07;;;;;;;;;43.75;39.00;;;;;4.37;62.91;101862.72;5075912;28;45752;-79
2023/03/04 04:34:54;;;;;;;;;46.50;35.50;;;;;4.37;62.32;101862.72;5075912;28;46234;-79
2023/03/04 04:37:20;;;;;;;;;44.25;36.00;;;;;4.36;62.50;101863.59;5076599;28;45627;-78
2023/03/04 04:39:45;;;;;;;;;46.25;35.25;;;;;4.24;62.74;101849.19;5076478;28;45603;-79
2023/03/04 04:42:10;;;;;;;;;45.00;37.00;;;;;4.38;62.51;101861.78;5076096;28;45724;-79
2023/03/04 04:44:37;;;;;;;;;45.75;38.50;;;;;4.24;62.51;101849.19;5076201;28;45707;-78
2023/03/04 04:50:27;;;;;;;;;50.75;39.50;;;;;4.25;62.64;101850.91;5076072;28;45757;-77
2023/03/04 04:52:53;;;;;;;;;48.00;36.50;;;;;4.29;62.59;101864.63;5075331;28;46527;-80
2023/03/04 04:55:18;;;;;;;;;49.50;40.25;;;;;4.36;62.50;101871.38;5057637;28;48154;-79
2023/03/04 04:57:44;;;;;;;;;50.00;42.50;;;;;4.34;62.61;101874.00;5076044;28;45726;-79
2023/03/04 05:00:10;;;;;;;;;40.25;37.00;;;;;4.31;62.34;101881.03;5075902;28;45724;-79
2023/03/04 05:02:36;;;;;;;;;45.75;38.25;;;;;4.32;62.19;101877.53;5075684;28;45549;-78
2023/03/04 05:05:05;;;;;;;;;30.50;24.00;;;;;4.27;62.41;101876.78;5075588;28;45526;-80
2023/03/04 05:07:32;;;;;;;;;41.25;32.50;;;;;4.00;62.36;101842.00;5076026;28;45836;-79
2023/03/04 05:09:57;;;;;;;;;42.25;36.00;;;;;4.23;62.38;101874.28;5076081;28;45849;-80
2023/03/04 05:12:23;;;;;;;;;49.75;37.75;;;;;4.19;62.56;101876.97;5076054;28;45603;-78
2023/03/04 05:14:48;;;;;;;;;43.33;37.00;;;;;4.27;62.10;101897.53;5075641;28;45704;-80
2023/03/04 05:20:35;;;;;;;;;38.75;32.00;;;;;4.17;61.93;101889.97;5075783;28;45846;-79
2023/03/04 05:23:00;;;;;;;;;44.50;38.00;;;;;4.05;62.11;101874.69;5075529;28;45855;-80
2023/03/04 05:25:26;;;;;;;;;43.50;33.75;;;;;4.20;62.23;101892.50;5075549;28;46011;-80
2023/03/04 05:27:51;;;;;;;;;47.50;40.75;;;;;4.15;62.26;101894.38;5075987;28;45596;-80
2023/03/04 05:30:17;;;;;;;;;46.75;33.75;;;;;4.12;62.43;101883.19;5075913;28;45763;-79
2023/03/04 05:36:05;;;;;;;;;39.75;36.75;;;;;4.16;62.24;101895.19;5075497;28;45872;-79
2023/03/04 05:38:31;;;;;;;;;38.00;32.00;;;;;4.19;62.28;101898.59;5075945;28;45762;-80
2023/03/04 05:40:58;;;;;;;;;37.25;33.75;;;;;4.18;62.00;101898.59;5075853;28;45564;-79
2023/03/04 05:43:25;;;;;;;;;41.75;32.50;;;;;4.17;62.37;101895.16;5075649;28;46312;-79
2023/03/04 05:45:50;;;;;;;;;36.50;34.25;;;;;3.95;61.76;101857.66;5075851;28;46498;-80
2023/03/04 05:48:16;;;;;;;;;45.25;31.00;;;;;4.17;62.27;101900.34;5075968;28;45513;-79
2023/03/04 05:50:41;;;;;;;;;40.25;34.00;;;;;3.98;62.14;101861.94;5075541;28;45533;-79
2023/03/04 05:53:06;;;;;;;;;52.00;36.67;;;;;4.09;62.14;101884.13;5064145;28;46854;-79
2023/03/04 05:55:32;;;;;;;;;42.50;32.75;;;;;4.16;62.10;101901.22;5054587;28;46256;-79
2023/03/04 05:57:57;;;;;;;;;42.50;37.25;;;;;4.15;62.12;101896.97;5036158;28;45688;-80
2023/03/04 06:00:23;;;;;;;;;40.25;31.00;;;;;4.04;62.01;101883.41;5054955;28;45695;-80
2023/03/04 06:06:10;;;;;;;;;48.00;36.00;;;;;4.17;61.71;101902.09;5054203;28;45760;-80
2023/03/04 06:08:36;;;;;;;;;45.50;36.50;;;;;4.19;61.72;101903.78;5054401;28;45637;-79
2023/03/04 06:11:02;;;;;;;;;46.50;38.50;;;;;4.19;61.94;101897.72;5054993;28;45513;-79
2023/03/04 06:13:27;;;;;;;;;46.50;36.25;;;;;4.16;61.63;101906.41;5054276;28;46709;-78
2023/03/04 06:15:58;;;;;;;;;44.50;38.75;;;;;4.20;61.82;101908.06;5054850;28;45997;-77
2023/03/04 06:21:46;;;;;;;;;45.25;35.50;;;;;4.31;61.68;101914.75;5054556;28;45625;-79
2023/03/04 06:24:11;;;;;;;;;44.00;37.75;;;;;4.32;61.76;101912.09;5054377;28;45635;-78
2023/03/04 06:26:37;;;;;;;;;44.25;30.75;;;;;4.30;61.62;101908.69;5055276;28;45198;-79
2023/03/04 06:29:03;;;;;;;;;43.75;34.25;;;;;4.35;61.39;101912.03;5055114;28;45563;-79
2023/03/04 06:31:29;;;;;;;;;44.75;33.50;;;;;4.39;61.73;101920.56;5055622;28;45654;-79
2023/03/04 06:33:54;;;;;;;;;35.75;27.00;;;;;4.21;61.26;101895.97;5054399;28;46318;-80
2023/03/04 06:36:19;;;;;;;;;52.25;40.00;;;;;4.41;61.28;101930.03;5057980;28;46097;-78
2023/03/04 06:38:45;;;;;;;;;37.50;32.50;;;;;4.37;61.47;101917.19;5055650;28;45729;-78
2023/03/04 06:41:12;;;;;;;;;40.00;36.25;;;;;4.17;61.31;101871.81;5055600;28;45765;-79
2023/03/04 06:43:38;;;;;;;;;42.00;33.75;;;;;4.46;61.17;101935.97;5036894;28;46815;-79
2023/03/04 06:46:05;;;;;;;;;43.50;35.75;;;;;4.33;61.05;101899.97;5061260;28;45600;-80
2023/03/04 06:51:52;;;;;;;;;33.75;24.25;;;;;4.45;60.95;101925.63;5058364;27;45714;-77
2023/03/04 06:54:17;;;;;;;;;35.25;27.25;;;;;4.55;61.04;101945.25;5071902;28;45531;-79
2023/03/04 06:56:43;;;;;;;;;36.75;30.50;;;;;4.52;60.49;101937.56;5068787;28;45397;-80
2023/03/04 06:59:08;;;;;;;;;39.75;28.25;;;;;4.58;60.96;101948.66;5064839;28;46001;-78
2023/03/04 07:01:35;;;;;;;;;37.00;32.25;;;;;4.39;60.54;101899.81;5066997;28;45606;-79
2023/03/04 07:07:22;;;;;;;;;35.00;31.00;;;;;4.73;60.60;101937.03;5059883;28;45572;-80
2023/03/04 07:09:47;;;;;;;;;34.50;28.75;;;;;4.77;60.73;101940.38;5059926;28;45463;-79
2023/03/04 07:12:13;;;;;;;;;30.75;24.25;;;;;4.79;60.41;101952.44;5061407;28;45541;-79
2023/03/04 07:14:38;;;;;;;;;32.50;26.50;;;;;4.82;60.56;101947.16;5060464;28;45661;-80
2023/03/04 07:17:04;;;;;;;;;30.25;24.75;;;;;4.84;60.43;101950.59;5062667;28;45409;-80
2023/03/04 07:19:29;;;;;;;;;38.50;27.25;;;;;4.80;60.30;101946.38;5060843;28;45523;-79
2023/03/04 07:21:54;;;;;;;;;37.75;33.50;;;;;4.86;60.37;101950.56;5057826;28;45654;-80
2023/03/04 07:24:20;;;;;;;;;29.25;23.25;;;;;4.89;60.15;101960.84;5057405;28;45553;-79
2023/03/04 07:26:45;;;;;;;;;32.00;24.25;;;;;4.89;60.25;101958.25;5057248;28;45625;-80
2023/03/04 07:29:12;;;;;;;;;27.00;26.25;;;;;4.88;60.29;101956.53;5055987;28;45751;-81
2023/03/04 07:31:38;;;;;;;;;15.75;11.25;;;;;4.89;59.95;101951.31;5056339;28;45567;-80
2023/03/04 07:37:25;;;;;;;;;31.75;28.50;;;;;4.94;59.84;101969.38;5055881;28;45748;-80
2023/03/04 07:39:50;;;;;;;;;37.50;29.75;;;;;4.92;59.70;101966.78;5056097;28;46001;-79
2023/03/04 07:42:15;;;;;;;;;37.25;30.25;;;;;4.96;59.84;101965.84;5055910;28;45827;-80
2023/03/04 07:44:41;;;;;;;;;32.75;30.75;;;;;4.90;59.70;101957.34;5055507;28;46779;-78
2023/03/04 07:47:06;;;;;;;;;32.25;27.00;;;;;4.97;60.00;101970.13;5055885;28;46025;-79
2023/03/04 07:52:53;;;;;;;;;42.25;28.25;;;;;5.01;59.40;101971.78;5055226;28;45625;-78
2023/03/04 07:55:19;;;;;;;;;41.25;32.50;;;;;4.78;59.46;101932.56;5055666;28;45599;-79
2023/03/04 07:57:46;;;;;;;;;31.50;27.25;;;;;4.97;59.42;101967.53;5056071;28;46390;-81
2023/03/04 08:00:14;;;;;;;;;42.75;34.25;;;;;5.04;59.37;101976.00;5054754;28;45833;-81
2023/03/04 08:02:39;;;;;;;;;33.50;28.50;;;;;5.10;59.33;101981.06;5055306;28;45730;-84
2023/03/04 08:05:05;;;;;;;;;45.75;33.50;;;;;5.10;59.30;101968.06;5055098;28;45613;-73
2023/03/04 08:07:31;;;;;;;;;43.50;32.25;;;;;5.21;59.52;101989.41;5054754;28;46691;-74
2023/03/04 08:09:56;;;;;;;;;33.75;29.00;;;;;5.26;59.29;101984.94;5054658;28;45618;-75
2023/03/04 08:12:23;;;;;;;;;38.00;32.25;;;;;5.33;59.71;101988.25;5053648;28;45950;-73
2023/03/04 08:14:49;;;;;;;;;39.25;30.50;;;;;5.32;58.97;101977.00;5053381;28;46370;-73
2023/03/04 08:17:14;;;;;;;;;27.25;24.00;;;;;5.46;59.35;101990.44;5054089;28;47274;-74
2023/03/04 08:23:02;;;;;;;;;30.25;22.00;;;;;5.55;58.63;101998.91;5054569;28;45527;-74
2023/03/04 08:25:27;;;;;;;;;35.50;30.25;;;;;5.48;58.52;101980.88;5054494;28;46229;-74
2023/03/04 08:27:52;;;;;;;;;38.25;26.00;;;;;5.60;58.49;101997.03;5054218;28;45739;-73
2023/03/04 08:30:18;;;;;;;;;28.25;22.75;;;;;5.60;58.40;101990.06;5055349;28;45421;-74
2023/03/04 08:32:43;;;;;;;;;37.25;30.25;;;;;5.64;58.60;101986.50;5053662;28;45444;-73
2023/03/04 08:38:31;;;;;;;;;36.00;25.50;;;;;5.71;58.19;102005.38;5053903;28;46071;-73
2023/03/04 08:40:56;;;;;;;;;39.25;29.25;;;;;5.68;58.42;101990.69;5053316;28;45670;-74
2023/03/04 08:43:23;;;;;;;;;35.00;26.25;;;;;5.75;58.04;102005.22;5054053;28;45485;-73
2023/03/04 08:45:49;;;;;;;;;26.50;23.00;;;;;5.69;57.69;102000.19;5054204;28;46573;-74
2023/03/04 08:48:16;;;;;;;;;34.00;25.50;;;;;5.79;58.21;102003.38;5054015;28;46299;-73
2023/03/04 08:54:04;;;;;;;;;39.25;28.50;;;;;5.88;57.65;102004.00;5060150;27;45733;-74
2023/03/04 08:56:29;;;;;;;;;35.00;28.75;;;;;5.92;57.99;102004.78;5054519;28;46242;-74
2023/03/04 08:58:55;;;;;;;;;35.75;31.50;;;;;5.97;57.75;101996.84;5054240;28;46258;-74
2023/03/04 09:01:20;;;;;;;;;38.50;28.50;;;;;6.02;57.78;102005.34;5035947;28;45794;-74
2023/03/04 09:03:46;;;;;;;;;29.75;26.50;;;;;6.09;57.31;102012.09;5054223;28;45696;-72
2023/03/04 09:06:16;;;;;;;;;26.25;22.50;;;;;6.10;57.28;102006.00;5053963;28;46235;-72
2023/03/04 09:08:43;;;;;;;;;26.50;24.25;;;;;5.99;57.31;101980.31;5035799;28;48225;-73
2023/03/04 09:11:09;;;;;;;;;26.75;23.75;;;;;6.13;57.03;102004.13;5053802;28;45985;-72
2023/03/04 09:13:34;;;;;;;;;24.75;20.00;;;;;6.24;57.05;102006.41;5053116;28;45488;-72
2023/03/04 09:16:00;;;;;;;;;26.25;21.00;;;;;6.25;56.75;102014.19;5069288;28;47444;-72
2023/03/04 09:18:27;;;;;;;;;27.00;22.50;;;;;6.23;56.75;102002.97;5053725;28;47074;-72
2023/03/04 09:24:14;;;;;;;;;25.75;17.75;;;;;6.31;56.44;102015.75;5050282;28;45657;-75
2023/03/04 09:26:39;;;;;;;;;36.25;24.25;;;;;6.28;56.62;102014.06;5049928;28;46299;-74
2023/03/04 09:29:06;;;;;;;;;26.00;24.25;;;;;6.30;56.45;102016.63;5050838;28;45862;-74
2023/03/04 09:31:31;;;;;;;;;32.50;22.00;;;;;6.32;56.51;102017.41;5049946;28;46086;-73
2023/03/04 09:33:58;;;;;;;;;26.25;20.00;;;;;6.39;56.40;102016.34;5050053;28;45738;-74
2023/03/04 09:39:45;;;;;;;;;28.75;21.75;;;;;6.47;56.43;102019.56;5053098;28;45767;-75
2023/03/04 09:42:24;;;;;;;;;26.00;19.75;;;;;6.50;56.25;102026.41;5053325;28;45757;-74
2023/03/04 09:44:54;;;;;;;;;30.25;22.25;;;;;6.41;56.24;102001.53;5053388;28;45827;-76
2023/03/04 09:47:22;;;;;;;;;11.50;8.25;;;;;6.55;55.84;102016.72;5052466;28;46738;-77
2023/03/04 09:50:02;;;;;;;;;28.50;23.25;;;;;6.56;56.10;102021.03;5053527;28;46587;-79
2023/03/04 09:52:33;;;;;;;;;26.25;20.50;;;;;6.56;55.95;102021.88;5052929;28;45660;-78
2023/03/04 09:55:13;;;;;;;;;32.00;24.00;;;;;6.55;56.20;102017.56;5053251;28;45900;-80
2023/03/04 09:57:41;;;;;;;;;28.25;23.75;;;;;6.56;55.93;102023.63;5053729;28;45499;-79
2023/03/04 10:00:31;;;;;;;;;34.25;26.50;;;;;6.58;55.91;102016.63;5052993;28;47520;-80
2023/03/04 10:03:08;;;;;;;;;29.25;24.25;;;;;6.59;55.91;102016.56;5053545;28;45612;-76
2023/03/04 10:06:07;;;;;;;;;31.50;23.25;;;;;6.62;56.22;102018.22;5053648;28;45732;-78
2023/03/04 10:08:51;;;;;;;;;28.00;21.25;;;;;6.65;56.00;102013.75;5012143;28;46432;-79
2023/03/04 10:11:28;;;;;;;;;31.75;23.75;;;;;6.59;55.63;102003.53;5012089;28;46307;-81
2023/03/04 10:14:10;;;;;;;;;38.25;29.25;;;;;6.54;55.63;101997.63;4991884;28;45785;-79
2023/03/04 10:16:48;;;;;;;;;34.50;28.25;;;;;6.69;55.60;102025.78;5007680;28;45809;-76
2023/03/04 10:19:21;;;;;;;;;36.50;25.00;;;;;6.71;55.95;102020.53;5007187;28;45795;-78
2023/03/04 10:21:49;;;;;;;;;28.50;24.75;;;;;6.63;55.86;101999.09;5008055;28;45807;-77
2023/03/04 10:24:17;;;;;;;;;31.75;23.75;;;;;6.73;55.71;102018.75;5007805;28;45971;-79
2023/03/04 10:26:45;;;;;;;;;26.75;22.00;;;;;6.76;55.87;102021.22;5012499;28;45633;-78
2023/03/04 10:29:18;;;;;;;;;28.25;20.25;;;;;6.80;55.59;102016.78;5014523;28;47448;-77
2023/03/04 10:31:45;;;;;;;;;29.75;23.75;;;;;6.80;55.62;102012.44;5014515;28;47411;-77
2023/03/04 10:34:15;;;;;;;;;29.25;27.00;;;;;6.83;55.73;102006.25;5014230;28;45629;-77
2023/03/04 10:36:43;;;;;;;;;30.00;21.00;;;;;6.85;55.52;102005.31;5014274;28;45830;-77
2023/03/04 10:39:18;;;;;;;;;34.50;23.25;;;;;6.87;55.44;102006.09;5014387;28;47561;-79
2023/03/04 10:41:52;;;;;;;;;26.50;26.25;;;;;6.90;55.47;101997.34;5014806;28;46240;-81
2023/03/04 10:44:18;;;;;;;;;25.50;23.00;;;;;6.94;55.74;101991.13;5014219;28;45794;-78
2023/03/04 10:46:46;;;;;;;;;26.00;23.75;;;;;6.91;55.28;101989.47;5054352;28;45796;-78
2023/03/04 10:49:14;;;;;;;;;29.00;24.25;;;;;6.95;55.28;101988.47;5072328;28;46828;-80
2023/03/04 10:52:02;;;;;;;;;28.25;23.50;;;;;7.01;55.32;101993.47;5053433;28;46483;-74
2023/03/04 10:54:36;;;;;;;;;35.25;26.75;;;;;7.03;55.40;101993.41;5053227;28;45568;-75
2023/03/04 10:57:13;;;;;;;;;35.00;25.00;;;;;7.00;55.30;101990.91;5055546;28;45527;-78
2023/03/04 10:59:41;;;;;;;;;28.50;20.25;;;;;7.05;55.37;101989.00;5053790;28;46338;-76
2023/03/04 11:02:14;;;;;;;;;24.50;20.50;;;;;7.07;55.30;101982.81;5054571;28;46391;-80
2023/03/04 11:04:39;;;;;;;;;29.50;23.25;;;;;7.08;55.19;101984.53;5054090;28;45566;-79
2023/03/04 11:07:14;;;;;;;;;29.50;24.50;;;;;6.94;55.15;101973.75;5036483;28;45563;-75
2023/03/04 11:09:39;;;;;;;;;19.75;19.75;;;;;7.09;55.39;101980.19;5056567;28;45627;-78
2023/03/04 11:12:14;;;;;;;;;29.25;24.25;;;;;7.08;55.48;101975.84;5056315;28;45498;-80
2023/03/04 11:14:49;;;;;;;;;29.00;21.00;;;;;6.92;55.36;101946.03;5056872;28;45545;-77
2023/03/04 11:17:28;;;;;;;;;28.75;22.00;;;;;7.16;55.62;101974.72;5057138;28;45535;-76
2023/03/04 11:20:08;;;;;;;;;22.00;18.00;;;;;7.23;55.60;101977.09;5057967;28;47962;-77
2023/03/04 11:22:34;;;;;;;;;24.00;18.75;;;;;7.27;55.50;101974.31;5056115;28;45764;-74
2023/03/04 11:25:06;;;;;;;;;17.50;14.50;;;;;7.23;55.36;101964.06;5071721;28;45643;-75
2023/03/04 11:27:38;;;;;;;;;20.00;17.50;;;;;7.34;55.37;101967.16;5056258;28;45602;-79
2023/03/04 11:30:38;;;;;;;;;30.50;20.00;;;;;7.39;55.23;101963.47;5055861;28;46481;-75
2023/03/04 11:33:25;;;;;;;;;20.50;19.75;;;;;7.42;55.09;101957.28;5055114;28;46669;-75
2023/03/04 11:35:51;;;;;;;;;27.25;23.00;;;;;7.45;55.07;101960.63;5055858;28;45656;-76
2023/03/04 11:38:23;;;;;;;;;28.00;21.00;;;;;7.46;55.22;101954.50;5055055;28;45725;-77
2023/03/04 11:41:15;;;;;;;;;23.25;20.00;;;;;7.51;54.72;101955.19;5055056;28;45587;-74
2023/03/04 11:43:45;;;;;;;;;31.25;23.25;;;;;7.54;54.90;101957.69;4974948;28;46204;-78
2023/03/04 11:46:20;;;;;;;;;25.50;21.00;;;;;7.55;54.77;101941.16;4974857;28;45731;-75
2023/03/04 11:48:52;;;;;;;;;24.25;22.25;;;;;7.56;54.71;101940.22;4971810;28;45705;-75
2023/03/04 11:55:04;;;;;;;;;25.75;22.75;;;;;7.62;54.48;101933.91;4985090;28;46259;-76
2023/03/04 11:58:01;;;;;;;;;22.50;18.00;;;;;7.64;54.32;101932.13;4993556;28;45656;-77
2023/03/04 12:00:51;;;;;;;;;23.25;18.75;;;;;7.63;54.49;101924.34;4989553;28;45960;-75
2023/03/04 12:03:44;;;;;;;;;24.00;20.50;;;;;7.65;54.44;101928.59;4991024;28;45664;-75
2023/03/04 12:09:57;;;;;;;;;29.25;20.75;;;;;7.74;54.50;101928.25;4990817;28;45951;-75
2023/03/04 12:13:00;;;;;;;;;25.75;19.25;;;;;7.80;54.02;101928.03;4989362;28;45934;-74
2023/03/04 12:15:59;;;;;;;;;25.50;23.75;;;;;7.84;54.06;101918.31;4976510;28;48600;-76
2023/03/04 12:18:43;;;;;;;;;22.75;18.00;;;;;7.84;53.97;101926.97;4991760;28;47221;-75
2023/03/04 12:21:23;;;;;;;;;23.25;20.50;;;;;7.86;54.00;101921.72;5043294;28;45835;-76
2023/03/04 12:27:16;;;;;;;;;24.25;16.75;;;;;7.91;53.70;101923.25;5070437;28;45694;-76
2023/03/04 12:29:54;;;;;;;;;26.50;18.00;;;;;7.91;53.56;101922.38;5070703;28;45822;-77
2023/03/04 12:32:39;;;;;;;;;26.00;20.75;;;;;7.91;53.71;101917.16;5072440;28;45899;-77
2023/03/04 12:35:45;;;;;;;;;13.25;12.00;;;;;7.87;53.61;101918.19;5073014;28;45692;-75
2023/03/04 12:38:26;;;;;;;;;23.75;21.50;;;;;7.83;53.90;101903.56;5072495;28;45648;-75
2023/03/04 12:41:19;;;;;;;;;25.00;19.00;;;;;7.84;53.91;101900.91;5071595;28;47449;-81
2023/03/04 12:44:11;;;;;;;;;20.75;17.50;;;;;7.82;53.81;101894.06;5075795;28;45870;-82
2023/03/04 12:47:19;;;;;;;;;22.00;21.00;;;;;7.86;53.69;101919.09;5056284;28;45850;-78